sensor_id;sensor_type;location;lat;lon;timestamp;P1;durP1;ratioP1;P2;durP2;ratioP2
20012;SDS011;10167;42.852;23.042;2022-07-23T00:03:58;6.38;;;3.10;;
20012;SDS011;10167;42.852;23.042;2022-07-23T00:06:25;5.57;;;2.72;;
20012;SDS011;10167;42.852;23.042;2022-07-23T00:08:53;4.43;;;2.60;;
20012;SDS011;10167;42.852;23.042;2022-07-23T00:11:20;6.90;;;3.00;;
20012;SDS011;10167;42.852;23.042;2022-07-23T00:13:48;3.72;;;2.50;;
20012;SDS011;10167;42.852;23.042;2022-07-23T00:16:16;10.75;;;2.80;;
20012;SDS011;10167;42.852;23.042;2022-07-23T00:18:43;4.25;;;2.38;;
20012;SDS011;10167;42.852;23.042;2022-07-23T00:26:14;4.55;;;2.47;;
20012;SDS011;10167;42.852;23.042;2022-07-23T00:28:42;3.88;;;2.78;;
20012;SDS011;10167;42.852;23.042;2022-07-23T00:31:09;4.00;;;2.70;;
20012;SDS011;10167;42.852;23.042;2022-07-23T00:33:37;6.35;;;2.40;;
20012;SDS011;10167;42.852;23.042;2022-07-23T00:36:05;2.65;;;2.00;;
20012;SDS011;10167;42.852;23.042;2022-07-23T00:38:33;3.80;;;2.17;;
20012;SDS011;10167;42.852;23.042;2022-07-23T00:41:00;3.72;;;2.30;;
20012;SDS011;10167;42.852;23.042;2022-07-23T00:46:19;4.13;;;2.70;;
20012;SDS011;10167;42.852;23.042;2022-07-23T00:48:47;5.28;;;2.33;;
20012;SDS011;10167;42.852;23.042;2022-07-23T00:51:15;4.70;;;2.47;;
20012;SDS011;10167;42.852;23.042;2022-07-23T00:53:43;4.97;;;2.53;;
20012;SDS011;10167;42.852;23.042;2022-07-23T00:56:11;4.97;;;2.55;;
20012;SDS011;10167;42.852;23.042;2022-07-23T00:58:39;5.60;;;2.40;;
20012;SDS011;10167;42.852;23.042;2022-07-23T01:01:09;3.40;;;2.15;;
20012;SDS011;10167;42.852;23.042;2022-07-23T01:08:49;4.07;;;2.55;;
20012;SDS011;10167;42.852;23.042;2022-07-23T01:11:16;4.05;;;2.33;;
20012;SDS011;10167;42.852;23.042;2022-07-23T01:13:46;3.50;;;2.38;;
20012;SDS011;10167;42.852;23.042;2022-07-23T01:16:14;7.07;;;2.95;;
20012;SDS011;10167;42.852;23.042;2022-07-23T01:18:42;5.25;;;2.20;;
20012;SDS011;10167;42.852;23.042;2022-07-23T01:21:10;4.38;;;2.40;;
20012;SDS011;10167;42.852;23.042;2022-07-23T01:23:40;3.75;;;2.55;;
20012;SDS011;10167;42.852;23.042;2022-07-23T01:31:18;5.50;;;2.30;;
20012;SDS011;10167;42.852;23.042;2022-07-23T01:33:46;7.50;;;2.95;;
20012;SDS011;10167;42.852;23.042;2022-07-23T01:36:14;2.90;;;2.00;;
20012;SDS011;10167;42.852;23.042;2022-07-23T01:38:42;3.58;;;2.40;;
20012;SDS011;10167;42.852;23.042;2022-07-23T01:41:10;6.22;;;2.65;;
20012;SDS011;10167;42.852;23.042;2022-07-23T01:43:40;4.28;;;2.72;;
20012;SDS011;10167;42.852;23.042;2022-07-23T01:46:08;4.50;;;2.70;;
20012;SDS011;10167;42.852;23.042;2022-07-23T01:54:07;5.65;;;2.95;;
20012;SDS011;10167;42.852;23.042;2022-07-23T01:56:35;3.95;;;2.42;;
20012;SDS011;10167;42.852;23.042;2022-07-23T01:59:02;6.38;;;2.95;;
20012;SDS011;10167;42.852;23.042;2022-07-23T02:01:30;5.90;;;2.53;;
20012;SDS011;10167;42.852;23.042;2022-07-23T02:03:59;5.60;;;2.38;;
20012;SDS011;10167;42.852;23.042;2022-07-23T02:06:26;3.45;;;2.45;;
20012;SDS011;10167;42.852;23.042;2022-07-23T02:08:54;5.85;;;3.03;;
20012;SDS011;10167;42.852;23.042;2022-07-23T02:16:25;6.22;;;2.58;;
20012;SDS011;10167;42.852;23.042;2022-07-23T02:18:53;4.40;;;2.03;;
20012;SDS011;10167;42.852;23.042;2022-07-23T02:21:20;6.55;;;2.80;;
20012;SDS011;10167;42.852;23.042;2022-07-23T02:23:48;6.63;;;2.75;;
20012;SDS011;10167;42.852;23.042;2022-07-23T02:26:16;4.03;;;2.72;;
20012;SDS011;10167;42.852;23.042;2022-07-23T02:28:49;5.07;;;2.17;;
20012;SDS011;10167;42.852;23.042;2022-07-23T02:31:19;3.90;;;2.10;;
20012;SDS011;10167;42.852;23.042;2022-07-23T02:38:51;3.30;;;2.47;;
20012;SDS011;10167;42.852;23.042;2022-07-23T02:41:19;5.50;;;2.00;;
20012;SDS011;10167;42.852;23.042;2022-07-23T02:43:47;3.08;;;2.20;;
20012;SDS011;10167;42.852;23.042;2022-07-23T02:46:15;3.63;;;2.42;;
20012;SDS011;10167;42.852;23.042;2022-07-23T02:48:43;4.85;;;2.70;;
20012;SDS011;10167;42.852;23.042;2022-07-23T02:51:10;3.65;;;2.40;;
20012;SDS011;10167;42.852;23.042;2022-07-23T02:53:47;3.45;;;2.42;;
20012;SDS011;10167;42.852;23.042;2022-07-23T03:01:19;5.07;;;2.33;;
20012;SDS011;10167;42.852;23.042;2022-07-23T03:03:47;4.93;;;2.42;;
20012;SDS011;10167;42.852;23.042;2022-07-23T03:06:15;5.72;;;2.53;;
20012;SDS011;10167;42.852;23.042;2022-07-23T03:08:42;4.45;;;2.42;;
20012;SDS011;10167;42.852;23.042;2022-07-23T03:11:10;3.55;;;2.35;;
20012;SDS011;10167;42.852;23.042;2022-07-23T03:13:40;4.63;;;2.38;;
20012;SDS011;10167;42.852;23.042;2022-07-23T03:16:07;4.50;;;2.80;;
20012;SDS011;10167;42.852;23.042;2022-07-23T03:23:36;2.83;;;2.13;;
20012;SDS011;10167;42.852;23.042;2022-07-23T03:26:04;4.43;;;2.47;;
20012;SDS011;10167;42.852;23.042;2022-07-23T03:28:32;3.78;;;2.65;;
20012;SDS011;10167;42.852;23.042;2022-07-23T03:30:59;5.88;;;3.22;;
20012;SDS011;10167;42.852;23.042;2022-07-23T03:33:27;5.70;;;2.20;;
20012;SDS011;10167;42.852;23.042;2022-07-23T03:35:55;3.42;;;2.50;;
20012;SDS011;10167;42.852;23.042;2022-07-23T03:38:25;3.92;;;2.50;;
20012;SDS011;10167;42.852;23.042;2022-07-23T03:45:57;5.32;;;2.45;;
20012;SDS011;10167;42.852;23.042;2022-07-23T03:48:25;4.80;;;2.67;;
20012;SDS011;10167;42.852;23.042;2022-07-23T03:50:53;4.68;;;2.97;;
20012;SDS011;10167;42.852;23.042;2022-07-23T03:53:21;4.35;;;2.88;;
20012;SDS011;10167;42.852;23.042;2022-07-23T03:55:48;8.57;;;3.05;;
20012;SDS011;10167;42.852;23.042;2022-07-23T03:58:16;3.65;;;2.05;;
20012;SDS011;10167;42.852;23.042;2022-07-23T04:00:43;5.38;;;2.67;;
20012;SDS011;10167;42.852;23.042;2022-07-23T04:08:16;4.28;;;2.35;;
20012;SDS011;10167;42.852;23.042;2022-07-23T04:10:49;4.68;;;2.60;;
20012;SDS011;10167;42.852;23.042;2022-07-23T04:13:17;4.22;;;2.65;;
20012;SDS011;10167;42.852;23.042;2022-07-23T04:15:45;5.18;;;2.60;;
20012;SDS011;10167;42.852;23.042;2022-07-23T04:18:12;3.63;;;2.13;;
20012;SDS011;10167;42.852;23.042;2022-07-23T04:20:51;6.85;;;3.45;;
20012;SDS011;10167;42.852;23.042;2022-07-23T04:23:20;4.88;;;2.67;;
20012;SDS011;10167;42.852;23.042;2022-07-23T04:30:53;5.15;;;2.65;;
20012;SDS011;10167;42.852;23.042;2022-07-23T04:33:23;5.10;;;3.08;;
20012;SDS011;10167;42.852;23.042;2022-07-23T04:35:54;4.78;;;2.72;;
20012;SDS011;10167;42.852;23.042;2022-07-23T04:38:22;8.45;;;2.80;;
20012;SDS011;10167;42.852;23.042;2022-07-23T04:40:53;5.72;;;3.33;;
20012;SDS011;10167;42.852;23.042;2022-07-23T04:43:20;4.57;;;2.75;;
20012;SDS011;10167;42.852;23.042;2022-07-23T04:45:50;6.45;;;2.60;;
20012;SDS011;10167;42.852;23.042;2022-07-23T04:51:05;5.60;;;3.30;;
20012;SDS011;10167;42.852;23.042;2022-07-23T04:53:34;4.07;;;2.63;;
20012;SDS011;10167;42.852;23.042;2022-07-23T04:56:04;4.40;;;2.85;;
20012;SDS011;10167;42.852;23.042;2022-07-23T04:58:32;7.20;;;3.10;;
20012;SDS011;10167;42.852;23.042;2022-07-23T05:01:00;3.45;;;2.10;;
20012;SDS011;10167;42.852;23.042;2022-07-23T05:03:30;4.68;;;2.70;;
20012;SDS011;10167;42.852;23.042;2022-07-23T05:05:58;5.45;;;3.00;;
20012;SDS011;10167;42.852;23.042;2022-07-23T05:13:17;4.38;;;2.85;;
20012;SDS011;10167;42.852;23.042;2022-07-23T05:15:45;6.93;;;3.33;;
20012;SDS011;10167;42.852;23.042;2022-07-23T05:18:13;6.57;;;3.38;;
20012;SDS011;10167;42.852;23.042;2022-07-23T05:20:42;6.05;;;2.95;;
20012;SDS011;10167;42.852;23.042;2022-07-23T05:23:13;14.55;;;3.42;;
20012;SDS011;10167;42.852;23.042;2022-07-23T05:25:41;6.05;;;2.83;;
20012;SDS011;10167;42.852;23.042;2022-07-23T05:28:09;4.88;;;3.10;;
20012;SDS011;10167;42.852;23.042;2022-07-23T05:35:39;5.63;;;3.15;;
20012;SDS011;10167;42.852;23.042;2022-07-23T05:38:26;10.15;;;3.70;;
20012;SDS011;10167;42.852;23.042;2022-07-23T05:40:57;5.15;;;3.03;;
20012;SDS011;10167;42.852;23.042;2022-07-23T05:43:25;5.32;;;2.65;;
20012;SDS011;10167;42.852;23.042;2022-07-23T05:45:53;4.82;;;3.05;;
20012;SDS011;10167;42.852;23.042;2022-07-23T05:48:21;5.50;;;3.13;;
20012;SDS011;10167;42.852;23.042;2022-07-23T05:51:13;7.05;;;3.10;;
20012;SDS011;10167;42.852;23.042;2022-07-23T05:58:51;5.57;;;3.42;;
20012;SDS011;10167;42.852;23.042;2022-07-23T06:01:19;6.38;;;3.33;;
20012;SDS011;10167;42.852;23.042;2022-07-23T06:03:57;5.93;;;3.35;;
20012;SDS011;10167;42.852;23.042;2022-07-23T06:06:32;7.75;;;3.70;;
20012;SDS011;10167;42.852;23.042;2022-07-23T06:08:59;6.78;;;3.42;;
20012;SDS011;10167;42.852;23.042;2022-07-23T06:11:28;9.20;;;2.83;;
20012;SDS011;10167;42.852;23.042;2022-07-23T06:13:56;5.22;;;3.35;;
20012;SDS011;10167;42.852;23.042;2022-07-23T06:21:40;5.90;;;3.33;;
20012;SDS011;10167;42.852;23.042;2022-07-23T06:24:14;5.57;;;3.40;;
20012;SDS011;10167;42.852;23.042;2022-07-23T06:26:42;5.45;;;3.03;;
20012;SDS011;10167;42.852;23.042;2022-07-23T06:29:09;5.35;;;3.40;;
20012;SDS011;10167;42.852;23.042;2022-07-23T06:31:37;4.85;;;2.97;;
20012;SDS011;10167;42.852;23.042;2022-07-23T06:34:05;4.85;;;3.20;;
20012;SDS011;10167;42.852;23.042;2022-07-23T06:36:35;5.70;;;3.75;;
20012;SDS011;10167;42.852;23.042;2022-07-23T06:44:01;10.00;;;3.58;;
20012;SDS011;10167;42.852;23.042;2022-07-23T06:46:31;7.90;;;3.10;;
20012;SDS011;10167;42.852;23.042;2022-07-23T06:49:00;6.20;;;3.90;;
20012;SDS011;10167;42.852;23.042;2022-07-23T06:51:28;4.82;;;3.30;;
20012;SDS011;10167;42.852;23.042;2022-07-23T06:53:56;5.95;;;3.65;;
20012;SDS011;10167;42.852;23.042;2022-07-23T06:56:25;8.68;;;3.70;;
20012;SDS011;10167;42.852;23.042;2022-07-23T06:58:54;7.10;;;3.60;;
20012;SDS011;10167;42.852;23.042;2022-07-23T07:06:21;4.93;;;3.00;;
20012;SDS011;10167;42.852;23.042;2022-07-23T07:08:48;6.75;;;3.53;;
20012;SDS011;10167;42.852;23.042;2022-07-23T07:11:16;7.07;;;4.00;;
20012;SDS011;10167;42.852;23.042;2022-07-23T07:13:44;9.02;;;3.70;;
20012;SDS011;10167;42.852;23.042;2022-07-23T07:16:12;10.15;;;3.85;;
20012;SDS011;10167;42.852;23.042;2022-07-23T07:18:39;5.70;;;2.88;;
20012;SDS011;10167;42.852;23.042;2022-07-23T07:21:07;7.18;;;3.28;;
20012;SDS011;10167;42.852;23.042;2022-07-23T07:28:34;6.25;;;3.53;;
20012;SDS011;10167;42.852;23.042;2022-07-23T07:31:01;6.85;;;3.55;;
20012;SDS011;10167;42.852;23.042;2022-07-23T07:33:29;5.80;;;3.78;;
20012;SDS011;10167;42.852;23.042;2022-07-23T07:35:57;8.13;;;3.70;;
20012;SDS011;10167;42.852;23.042;2022-07-23T07:38:26;4.88;;;3.80;;
20012;SDS011;10167;42.852;23.042;2022-07-23T07:40:54;13.68;;;3.78;;
20012;SDS011;10167;42.852;23.042;2022-07-23T07:43:21;7.75;;;3.97;;
20012;SDS011;10167;42.852;23.042;2022-07-23T07:50:48;7.70;;;4.00;;
20012;SDS011;10167;42.852;23.042;2022-07-23T07:53:16;5.72;;;3.95;;
20012;SDS011;10167;42.852;23.042;2022-07-23T07:55:44;5.35;;;3.88;;
20012;SDS011;10167;42.852;23.042;2022-07-23T07:58:17;5.80;;;3.60;;
20012;SDS011;10167;42.852;23.042;2022-07-23T08:00:45;7.93;;;4.43;;
20012;SDS011;10167;42.852;23.042;2022-07-23T08:03:13;7.07;;;4.13;;
20012;SDS011;10167;42.852;23.042;2022-07-23T08:05:41;4.80;;;3.45;;
20012;SDS011;10167;42.852;23.042;2022-07-23T08:13:13;7.70;;;3.58;;
20012;SDS011;10167;42.852;23.042;2022-07-23T08:15:42;7.50;;;3.72;;
20012;SDS011;10167;42.852;23.042;2022-07-23T08:18:12;5.07;;;3.38;;
20012;SDS011;10167;42.852;23.042;2022-07-23T08:20:40;6.32;;;3.25;;
20012;SDS011;10167;42.852;23.042;2022-07-23T08:23:08;5.13;;;3.25;;
20012;SDS011;10167;42.852;23.042;2022-07-23T08:25:37;5.68;;;3.53;;
20012;SDS011;10167;42.852;23.042;2022-07-23T08:28:05;6.50;;;3.13;;
20012;SDS011;10167;42.852;23.042;2022-07-23T08:35:38;8.38;;;3.38;;
20012;SDS011;10167;42.852;23.042;2022-07-23T08:38:07;7.72;;;3.47;;
20012;SDS011;10167;42.852;23.042;2022-07-23T08:40:36;6.32;;;3.10;;
20012;SDS011;10167;42.852;23.042;2022-07-23T08:43:10;6.43;;;3.55;;
20012;SDS011;10167;42.852;23.042;2022-07-23T08:45:39;8.43;;;3.75;;
20012;SDS011;10167;42.852;23.042;2022-07-23T08:48:08;8.32;;;3.67;;
20012;SDS011;10167;42.852;23.042;2022-07-23T08:50:40;8.20;;;3.83;;
20012;SDS011;10167;42.852;23.042;2022-07-23T08:58:13;7.80;;;3.17;;
20012;SDS011;10167;42.852;23.042;2022-07-23T09:00:41;4.57;;;3.10;;
20012;SDS011;10167;42.852;23.042;2022-07-23T09:03:11;4.32;;;3.47;;
20012;SDS011;10167;42.852;23.042;2022-07-23T09:05:43;11.70;;;4.00;;
20012;SDS011;10167;42.852;23.042;2022-07-23T09:08:11;5.18;;;3.92;;
20012;SDS011;10167;42.852;23.042;2022-07-23T09:10:48;8.70;;;3.83;;
20012;SDS011;10167;42.852;23.042;2022-07-23T09:13:25;5.53;;;3.50;;
20012;SDS011;10167;42.852;23.042;2022-07-23T09:20:57;6.25;;;3.33;;
20012;SDS011;10167;42.852;23.042;2022-07-23T09:23:37;5.32;;;3.45;;
20012;SDS011;10167;42.852;23.042;2022-07-23T09:26:17;6.40;;;3.17;;
20012;SDS011;10167;42.852;23.042;2022-07-23T09:29:00;5.85;;;3.22;;
20012;SDS011;10167;42.852;23.042;2022-07-23T09:31:31;6.68;;;2.90;;
20012;SDS011;10167;42.852;23.042;2022-07-23T09:34:08;4.82;;;2.90;;
20012;SDS011;10167;42.852;23.042;2022-07-23T09:36:37;5.97;;;3.45;;
20012;SDS011;10167;42.852;23.042;2022-07-23T09:44:16;8.68;;;3.17;;
20012;SDS011;10167;42.852;23.042;2022-07-23T09:46:50;5.50;;;2.65;;
20012;SDS011;10167;42.852;23.042;2022-07-23T09:49:24;3.58;;;2.90;;
20012;SDS011;10167;42.852;23.042;2022-07-23T09:51:52;9.95;;;3.20;;
20012;SDS011;10167;42.852;23.042;2022-07-23T09:54:22;6.25;;;3.13;;
20012;SDS011;10167;42.852;23.042;2022-07-23T09:56:53;5.82;;;3.10;;
20012;SDS011;10167;42.852;23.042;2022-07-23T09:59:23;5.38;;;3.15;;
20012;SDS011;10167;42.852;23.042;2022-07-23T10:04:37;6.40;;;2.78;;
20012;SDS011;10167;42.852;23.042;2022-07-23T10:07:32;5.80;;;3.10;;
20012;SDS011;10167;42.852;23.042;2022-07-23T10:10:20;5.65;;;3.13;;
20012;SDS011;10167;42.852;23.042;2022-07-23T10:13:26;4.25;;;2.85;;
20012;SDS011;10167;42.852;23.042;2022-07-23T10:16:13;3.90;;;2.90;;
20012;SDS011;10167;42.852;23.042;2022-07-23T10:18:52;5.63;;;2.83;;
20012;SDS011;10167;42.852;23.042;2022-07-23T10:26:26;12.52;;;4.30;;
20012;SDS011;10167;42.852;23.042;2022-07-23T10:29:02;12.73;;;4.35;;
20012;SDS011;10167;42.852;23.042;2022-07-23T10:31:46;6.05;;;2.97;;
20012;SDS011;10167;42.852;23.042;2022-07-23T10:34:33;4.72;;;2.80;;
20012;SDS011;10167;42.852;23.042;2022-07-23T10:37:12;5.30;;;2.63;;
20012;SDS011;10167;42.852;23.042;2022-07-23T10:39:48;11.13;;;3.03;;
20012;SDS011;10167;42.852;23.042;2022-07-23T10:47:40;9.40;;;2.70;;
20012;SDS011;10167;42.852;23.042;2022-07-23T10:50:22;5.97;;;2.90;;
20012;SDS011;10167;42.852;23.042;2022-07-23T10:53:11;5.82;;;2.78;;
20012;SDS011;10167;42.852;23.042;2022-07-23T10:55:43;4.10;;;2.60;;
20012;SDS011;10167;42.852;23.042;2022-07-23T10:58:19;7.80;;;2.80;;
20012;SDS011;10167;42.852;23.042;2022-07-23T11:00:48;6.75;;;3.00;;
20012;SDS011;10167;42.852;23.042;2022-07-23T11:06:06;3.78;;;2.40;;
20012;SDS011;10167;42.852;23.042;2022-07-23T11:08:34;5.20;;;2.88;;
20012;SDS011;10167;42.852;23.042;2022-07-23T11:11:08;7.53;;;3.03;;
20012;SDS011;10167;42.852;23.042;2022-07-23T11:13:46;10.63;;;3.17;;
20012;SDS011;10167;42.852;23.042;2022-07-23T11:16:19;6.30;;;2.88;;
20012;SDS011;10167;42.852;23.042;2022-07-23T11:18:56;10.00;;;2.92;;
20012;SDS011;10167;42.852;23.042;2022-07-23T11:26:46;7.72;;;3.67;;
20012;SDS011;10167;42.852;23.042;2022-07-23T11:32:23;9.45;;;3.10;;
20012;SDS011;10167;42.852;23.042;2022-07-23T11:34:59;6.57;;;2.40;;
20012;SDS011;10167;42.852;23.042;2022-07-23T11:37:32;5.82;;;3.05;;
20012;SDS011;10167;42.852;23.042;2022-07-23T11:40:03;7.10;;;2.92;;
20012;SDS011;10167;42.852;23.042;2022-07-23T11:48:27;4.55;;;2.40;;
20012;SDS011;10167;42.852;23.042;2022-07-23T11:50:56;5.15;;;2.88;;
20012;SDS011;10167;42.852;23.042;2022-07-23T11:53:24;3.90;;;2.05;;
20012;SDS011;10167;42.852;23.042;2022-07-23T11:55:53;7.20;;;2.97;;
20012;SDS011;10167;42.852;23.042;2022-07-23T11:58:21;7.60;;;2.88;;
20012;SDS011;10167;42.852;23.042;2022-07-23T12:00:49;7.57;;;2.47;;
20012;SDS011;10167;42.852;23.042;2022-07-23T12:03:17;13.60;;;2.97;;
20012;SDS011;10167;42.852;23.042;2022-07-23T12:10:49;4.25;;;2.15;;
20012;SDS011;10167;42.852;23.042;2022-07-23T12:13:18;9.93;;;3.45;;
20012;SDS011;10167;42.852;23.042;2022-07-23T12:15:49;8.85;;;3.22;;
20012;SDS011;10167;42.852;23.042;2022-07-23T12:18:19;11.68;;;2.90;;
20012;SDS011;10167;42.852;23.042;2022-07-23T12:20:48;7.93;;;2.80;;
20012;SDS011;10167;42.852;23.042;2022-07-23T12:23:18;6.82;;;2.75;;
20012;SDS011;10167;42.852;23.042;2022-07-23T12:25:48;7.38;;;2.75;;
20012;SDS011;10167;42.852;23.042;2022-07-23T12:33:24;4.47;;;1.98;;
20012;SDS011;10167;42.852;23.042;2022-07-23T12:35:53;7.07;;;2.97;;
20012;SDS011;10167;42.852;23.042;2022-07-23T12:38:23;5.38;;;2.17;;
20012;SDS011;10167;42.852;23.042;2022-07-23T12:40:54;9.18;;;2.50;;
20012;SDS011;10167;42.852;23.042;2022-07-23T12:43:23;5.43;;;2.67;;
20012;SDS011;10167;42.852;23.042;2022-07-23T12:45:52;3.20;;;2.78;;
20012;SDS011;10167;42.852;23.042;2022-07-23T12:48:24;10.02;;;2.85;;
20012;SDS011;10167;42.852;23.042;2022-07-23T12:52:12;4.40;;;2.05;;
20012;SDS011;10167;42.852;23.042;2022-07-23T12:54:43;4.35;;;2.63;;
20012;SDS011;10167;42.852;23.042;2022-07-23T12:57:10;7.75;;;2.63;;
20012;SDS011;10167;42.852;23.042;2022-07-23T12:59:40;6.30;;;2.72;;
20012;SDS011;10167;42.852;23.042;2022-07-23T13:02:08;3.50;;;2.75;;
20012;SDS011;10167;42.852;23.042;2022-07-23T13:04:37;7.25;;;2.80;;
20012;SDS011;10167;42.852;23.042;2022-07-23T13:07:05;4.43;;;2.92;;
20012;SDS011;10167;42.852;23.042;2022-07-23T13:14:37;7.53;;;3.17;;
20012;SDS011;10167;42.852;23.042;2022-07-23T13:17:05;6.80;;;2.97;;
20012;SDS011;10167;42.852;23.042;2022-07-23T13:19:33;5.93;;;2.67;;
20012;SDS011;10167;42.852;23.042;2022-07-23T13:22:01;8.82;;;3.03;;
20012;SDS011;10167;42.852;23.042;2022-07-23T13:24:35;6.47;;;2.53;;
20012;SDS011;10167;42.852;23.042;2022-07-23T13:27:06;5.43;;;3.20;;
20012;SDS011;10167;42.852;23.042;2022-07-23T13:29:37;8.57;;;3.28;;
20012;SDS011;10167;42.852;23.042;2022-07-23T13:36:18;7.35;;;2.65;;
20012;SDS011;10167;42.852;23.042;2022-07-23T13:38:46;5.30;;;2.67;;
20012;SDS011;10167;42.852;23.042;2022-07-23T13:41:14;9.32;;;2.40;;
20012;SDS011;10167;42.852;23.042;2022-07-23T13:43:45;6.10;;;3.33;;
20012;SDS011;10167;42.852;23.042;2022-07-23T13:46:13;6.53;;;2.88;;
20012;SDS011;10167;42.852;23.042;2022-07-23T13:48:41;6.30;;;2.85;;
20012;SDS011;10167;42.852;23.042;2022-07-23T13:51:09;5.22;;;3.33;;
20012;SDS011;10167;42.852;23.042;2022-07-23T13:58:14;4.43;;;2.63;;
20012;SDS011;10167;42.852;23.042;2022-07-23T14:00:43;5.65;;;2.60;;
20012;SDS011;10167;42.852;23.042;2022-07-23T14:03:20;6.20;;;3.00;;
20012;SDS011;10167;42.852;23.042;2022-07-23T14:05:50;4.53;;;3.10;;
20012;SDS011;10167;42.852;23.042;2022-07-23T14:08:18;5.72;;;2.45;;
20012;SDS011;10167;42.852;23.042;2022-07-23T14:10:48;6.82;;;2.50;;
20012;SDS011;10167;42.852;23.042;2022-07-23T14:13:16;6.70;;;3.08;;
20012;SDS011;10167;42.852;23.042;2022-07-23T14:20:51;4.07;;;2.47;;
20012;SDS011;10167;42.852;23.042;2022-07-23T14:23:19;6.85;;;2.47;;
20012;SDS011;10167;42.852;23.042;2022-07-23T14:25:47;5.78;;;2.50;;
20012;SDS011;10167;42.852;23.042;2022-07-23T14:28:15;5.13;;;2.55;;
20012;SDS011;10167;42.852;23.042;2022-07-23T14:30:46;6.80;;;2.80;;
20012;SDS011;10167;42.852;23.042;2022-07-23T14:33:14;5.32;;;2.63;;
20012;SDS011;10167;42.852;23.042;2022-07-23T14:35:43;5.03;;;2.45;;
20012;SDS011;10167;42.852;23.042;2022-07-23T14:43:14;5.82;;;2.60;;
20012;SDS011;10167;42.852;23.042;2022-07-23T14:45:42;6.30;;;2.55;;
20012;SDS011;10167;42.852;23.042;2022-07-23T14:48:15;9.00;;;3.13;;
20012;SDS011;10167;42.852;23.042;2022-07-23T14:50:43;7.72;;;2.97;;
20012;SDS011;10167;42.852;23.042;2022-07-23T14:53:12;5.15;;;2.60;;
20012;SDS011;10167;42.852;23.042;2022-07-23T14:55:39;5.78;;;2.95;;
20012;SDS011;10167;42.852;23.042;2022-07-23T14:58:07;4.40;;;2.03;;
20012;SDS011;10167;42.852;23.042;2022-07-23T15:05:02;7.32;;;2.97;;
20012;SDS011;10167;42.852;23.042;2022-07-23T15:07:33;4.55;;;2.22;;
20012;SDS011;10167;42.852;23.042;2022-07-23T15:10:01;7.97;;;2.72;;
20012;SDS011;10167;42.852;23.042;2022-07-23T15:12:29;4.63;;;2.60;;
20012;SDS011;10167;42.852;23.042;2022-07-23T15:14:57;6.00;;;2.90;;
20012;SDS011;10167;42.852;23.042;2022-07-23T15:17:25;9.02;;;2.58;;
20012;SDS011;10167;42.852;23.042;2022-07-23T15:19:53;8.00;;;2.50;;
20012;SDS011;10167;42.852;23.042;2022-07-23T15:26:58;7.78;;;2.63;;
20012;SDS011;10167;42.852;23.042;2022-07-23T15:29:26;7.18;;;2.58;;
20012;SDS011;10167;42.852;23.042;2022-07-23T15:31:55;3.72;;;2.28;;
20012;SDS011;10167;42.852;23.042;2022-07-23T15:34:25;7.15;;;2.80;;
20012;SDS011;10167;42.852;23.042;2022-07-23T15:36:52;5.88;;;2.65;;
20012;SDS011;10167;42.852;23.042;2022-07-23T15:39:20;4.70;;;2.45;;
20012;SDS011;10167;42.852;23.042;2022-07-23T15:41:47;3.08;;;2.25;;
20012;SDS011;10167;42.852;23.042;2022-07-23T15:49:19;6.68;;;2.92;;
20012;SDS011;10167;42.852;23.042;2022-07-23T15:51:47;3.90;;;2.45;;
20012;SDS011;10167;42.852;23.042;2022-07-23T15:54:15;5.55;;;2.42;;
20012;SDS011;10167;42.852;23.042;2022-07-23T15:56:42;7.72;;;2.92;;
20012;SDS011;10167;42.852;23.042;2022-07-23T15:59:11;7.68;;;2.97;;
20012;SDS011;10167;42.852;23.042;2022-07-23T16:01:39;6.97;;;2.75;;
20012;SDS011;10167;42.852;23.042;2022-07-23T16:04:07;7.82;;;2.50;;
20012;SDS011;10167;42.852;23.042;2022-07-23T16:11:01;7.03;;;2.78;;
20012;SDS011;10167;42.852;23.042;2022-07-23T16:13:28;6.50;;;2.70;;
20012;SDS011;10167;42.852;23.042;2022-07-23T16:15:56;2.83;;;2.25;;
20012;SDS011;10167;42.852;23.042;2022-07-23T16:18:24;5.53;;;2.67;;
20012;SDS011;10167;42.852;23.042;2022-07-23T16:20:53;4.35;;;2.50;;
20012;SDS011;10167;42.852;23.042;2022-07-23T16:23:21;9.07;;;2.67;;
20012;SDS011;10167;42.852;23.042;2022-07-23T16:25:49;5.85;;;2.40;;
20012;SDS011;10167;42.852;23.042;2022-07-23T16:33:20;5.57;;;2.80;;
20012;SDS011;10167;42.852;23.042;2022-07-23T16:35:48;9.20;;;3.13;;
20012;SDS011;10167;42.852;23.042;2022-07-23T16:38:15;8.20;;;2.70;;
20012;SDS011;10167;42.852;23.042;2022-07-23T16:40:43;14.40;;;2.90;;
20012;SDS011;10167;42.852;23.042;2022-07-23T16:43:11;10.45;;;2.97;;
20012;SDS011;10167;42.852;23.042;2022-07-23T16:45:38;13.63;;;3.00;;
20012;SDS011;10167;42.852;23.042;2022-07-23T16:48:06;4.95;;;2.75;;
20012;SDS011;10167;42.852;23.042;2022-07-23T16:54:33;6.65;;;2.92;;
20012;SDS011;10167;42.852;23.042;2022-07-23T16:57:01;6.32;;;3.05;;
20012;SDS011;10167;42.852;23.042;2022-07-23T16:59:28;5.90;;;2.58;;
20012;SDS011;10167;42.852;23.042;2022-07-23T17:01:56;10.50;;;2.90;;
20012;SDS011;10167;42.852;23.042;2022-07-23T17:04:24;8.13;;;2.67;;
20012;SDS011;10167;42.852;23.042;2022-07-23T17:06:52;4.82;;;2.63;;
20012;SDS011;10167;42.852;23.042;2022-07-23T17:09:20;9.20;;;2.70;;
20012;SDS011;10167;42.852;23.042;2022-07-23T17:16:45;7.32;;;2.85;;
20012;SDS011;10167;42.852;23.042;2022-07-23T17:19:13;9.13;;;3.60;;
20012;SDS011;10167;42.852;23.042;2022-07-23T17:21:40;11.88;;;2.85;;
20012;SDS011;10167;42.852;23.042;2022-07-23T17:24:08;12.88;;;4.65;;
20012;SDS011;10167;42.852;23.042;2022-07-23T17:26:36;13.13;;;3.33;;
20012;SDS011;10167;42.852;23.042;2022-07-23T17:29:05;13.10;;;3.55;;
20012;SDS011;10167;42.852;23.042;2022-07-23T17:31:32;9.80;;;2.80;;
20012;SDS011;10167;42.852;23.042;2022-07-23T17:39:03;12.48;;;3.35;;
20012;SDS011;10167;42.852;23.042;2022-07-23T17:41:32;8.57;;;3.08;;
20012;SDS011;10167;42.852;23.042;2022-07-23T17:44:00;10.10;;;3.67;;
20012;SDS011;10167;42.852;23.042;2022-07-23T17:46:28;12.60;;;3.95;;
20012;SDS011;10167;42.852;23.042;2022-07-23T17:48:56;7.10;;;3.33;;
20012;SDS011;10167;42.852;23.042;2022-07-23T17:51:24;7.97;;;4.18;;
20012;SDS011;10167;42.852;23.042;2022-07-23T17:53:52;10.65;;;4.78;;
20012;SDS011;10167;42.852;23.042;2022-07-23T18:01:21;33.75;;;9.68;;
20012;SDS011;10167;42.852;23.042;2022-07-23T18:03:49;31.80;;;11.52;;
20012;SDS011;10167;42.852;23.042;2022-07-23T18:06:17;23.90;;;8.65;;
20012;SDS011;10167;42.852;23.042;2022-07-23T18:08:45;15.85;;;5.72;;
20012;SDS011;10167;42.852;23.042;2022-07-23T18:11:12;12.93;;;4.13;;
20012;SDS011;10167;42.852;23.042;2022-07-23T18:13:40;11.52;;;5.20;;
20012;SDS011;10167;42.852;23.042;2022-07-23T18:16:08;12.95;;;5.20;;
20012;SDS011;10167;42.852;23.042;2022-07-23T18:23:35;7.95;;;3.53;;
20012;SDS011;10167;42.852;23.042;2022-07-23T18:26:04;4.25;;;2.90;;
20012;SDS011;10167;42.852;23.042;2022-07-23T18:28:32;7.70;;;3.40;;
20012;SDS011;10167;42.852;23.042;2022-07-23T18:30:59;9.38;;;4.03;;
20012;SDS011;10167;42.852;23.042;2022-07-23T18:33:27;7.78;;;4.45;;
20012;SDS011;10167;42.852;23.042;2022-07-23T18:35:55;11.57;;;4.43;;
20012;SDS011;10167;42.852;23.042;2022-07-23T18:38:23;7.78;;;3.95;;
20012;SDS011;10167;42.852;23.042;2022-07-23T18:45:53;8.43;;;3.95;;
20012;SDS011;10167;42.852;23.042;2022-07-23T18:48:23;8.55;;;3.80;;
20012;SDS011;10167;42.852;23.042;2022-07-23T18:50:51;9.10;;;3.75;;
20012;SDS011;10167;42.852;23.042;2022-07-23T18:53:19;9.18;;;3.22;;
20012;SDS011;10167;42.852;23.042;2022-07-23T18:55:47;5.45;;;3.42;;